Acworth, New Hampshire
Current Conditions -  °F | °C
As of 12:54 AM on Saturday 20 Dec 2014 (Local Time) from KVSF Reporting Station
Few Clouds Few Clouds  
Wind Chill: 12°   Ceiling: Unl
Heat Index: 22°   Visibility: 10mi
Dew Point: 15°   Wind: 9mph
Humidity: 75%   Direction: 10°N
Pressure: 30.2"   Gusts: NA
Location:  43.22°N, 72.29°W
Report Text: KVSF 200554Z AUTO 01008KT 10SM FEW018 M06/M09 A3020 RMK AO2 SLP235 T10561094 11033 21056 51011 TSNO
Loading
Personal Weather Stations






























Interactive Weather Map New forecast layout! Learn more

10-Day Weather Forecast

Advertisements
Track Severe Weather on mobile